Time;durP1;ratioP1;P1;durP2;ratioP2;P2;SDS_P1;SDS_P2;PMS_P1;PMS_P2;Temp;Humidity;BMP_temperature;BMP_pressure;BME280_temperature;BME280_humidity;BME280_pressure;Samples;Min_cycle;Max_cycle;Signal;HPM_P1;HPM_P2
2022/09/09 00:00:54;;;;;;;16.40;14.50;;;;;;;17.23;77.49;98429.34;88327;1274;26551;-73
2022/09/09 00:03:11;;;;;;;17.90;14.20;;;;;;;17.21;77.54;98427.66;88423;1275;22737;-72
2022/09/09 00:05:38;;;;;;;16.80;14.00;;;;;;;17.21;77.47;98435.86;88271;1274;99724;-73
2022/09/09 00:07:50;;;;;;;15.20;13.10;;;;;;;17.19;77.61;98435.98;88215;1276;24243;-71
2022/09/09 00:10:13;;;;;;;14.10;12.50;;;;;;;17.19;77.63;98440.08;88338;1276;22564;-74
2022/09/09 00:12:34;;;;;;;12.70;11.50;;;;;;;17.18;77.70;98438.23;88438;1273;22739;-73
2022/09/09 00:14:58;;;;;;;13.70;12.30;;;;;;;17.16;77.82;98438.04;88341;1274;25403;-73
2022/09/09 00:17:09;;;;;;;13.50;12.00;;;;;;;17.14;77.81;98440.36;88293;1274;98613;-72
2022/09/09 00:19:14;;;;;;;14.30;10.90;;;;;;;17.12;77.78;98436.56;88314;1276;22793;-71
2022/09/09 00:21:18;;;;;;;16.60;12.40;;;;;;;17.10;77.78;98440.83;88299;1273;24228;-71
2022/09/09 00:23:27;;;;;;;12.50;11.20;;;;;;;17.09;77.81;98439.02;88381;1277;99139;-71
2022/09/09 00:25:37;;;;;;;15.10;11.30;;;;;;;17.08;77.80;98438.35;88314;1274;24833;-73
2022/09/09 00:27:46;;;;;;;16.60;11.80;;;;;;;17.05;77.94;98432.36;88248;1274;23218;-73
2022/09/09 00:30:00;;;;;;;17.60;11.70;;;;;;;17.06;77.87;98435.54;88253;1273;99312;-73
2022/09/09 00:32:13;;;;;;;12.10;10.90;;;;;;;17.04;77.94;98440.63;88321;1274;23642;-73
2022/09/09 00:34:21;;;;;;;13.90;11.40;;;;;;;17.02;77.88;98441.11;88163;1276;101152;-73
2022/09/09 00:36:26;;;;;;;15.00;12.10;;;;;;;16.97;77.98;98437.42;88361;1277;25535;-72
2022/09/09 00:38:58;;;;;;;12.30;11.20;;;;;;;16.99;77.95;98442.32;88288;1277;25631;-71
2022/09/09 00:41:09;;;;;;;13.00;11.50;;;;;;;16.98;78.05;98445.77;88238;1275;99998;-72
2022/09/09 00:43:21;;;;;;;14.10;12.50;;;;;;;16.97;78.10;98441.40;88365;1273;23046;-72
2022/09/09 00:45:25;;;;;;;13.40;12.00;;;;;;;16.96;78.04;98442.54;88363;1274;22812;-73
2022/09/09 00:47:56;;;;;;;16.30;12.40;;;;;;;16.95;78.16;98444.55;88251;1274;99083;-71
2022/09/09 00:50:13;;;;;;;13.00;11.80;;;;;;;16.94;78.09;98449.06;88306;1274;22579;-71
2022/09/09 00:52:43;;;;;;;14.80;11.70;;;;;;;16.92;78.23;98451.89;88438;1273;99665;-73
2022/09/09 00:55:13;;;;;;;15.70;11.70;;;;;;;16.93;78.28;98450.80;88288;1273;22614;-71
2022/09/09 00:57:31;;;;;;;18.50;12.50;;;;;;;16.91;78.36;98456.27;88298;1275;23489;-72
2022/09/09 00:59:47;;;;;;;17.30;12.20;;;;;;;16.90;78.37;98458.49;88160;1276;100061;-70
2022/09/09 01:01:48;;;;;;;13.40;11.10;;;;;;;16.89;78.31;98456.65;88299;1274;25301;-75
2022/09/09 01:03:54;;;;;;;18.20;11.00;;;;;;;16.87;78.29;98459.25;88261;1277;23308;-72
2022/09/09 01:06:17;;;;;;;12.40;11.10;;;;;;;16.86;78.43;98458.08;88261;1276;98476;-72
2022/09/09 01:08:25;;;;;;;14.20;12.00;;;;;;;16.85;78.48;98462.77;88404;1274;23308;-73
2022/09/09 01:10:50;;;;;;;20.90;13.00;;;;;;;16.83;78.53;98464.29;88242;1273;99354;-72
2022/09/09 01:12:55;;;;;;;18.70;12.80;;;;;;;16.83;78.46;98464.88;88270;1274;24327;-72
2022/09/09 01:15:08;;;;;;;16.00;12.90;;;;;;;16.81;78.48;98468.05;88272;1274;23646;-71
2022/09/09 01:17:45;;;;;;;14.30;13.00;;;;;;;16.79;78.46;98470.14;88286;1277;99194;-72
2022/09/09 01:19:59;;;;;;;18.10;13.80;;;;;;;16.77;78.59;98472.50;88407;1274;22595;-73
2022/09/09 01:22:32;;;;;;;16.30;13.00;;;;;;;16.76;78.61;98477.84;88356;1274;22555;-72
2022/09/09 01:24:52;;;;;;;19.10;13.50;;;;;;;16.75;78.58;98480.80;88560;1273;22562;-73
2022/09/09 01:26:58;;;;;;;17.60;13.50;;;;;;;16.73;78.63;98480.95;88313;1275;24244;-72
2022/09/09 01:29:00;;;;;;;15.90;14.40;;;;;;;16.71;78.71;98479.13;88216;1276;99345;-71
2022/09/09 01:31:07;;;;;;;27.30;13.70;;;;;;;16.69;78.65;98482.85;88300;1274;23503;-74
2022/09/09 01:33:17;;;;;;;17.90;13.70;;;;;;;16.68;78.73;98485.95;88403;1274;23532;-72
2022/09/09 01:36:00;;;;;;;15.10;13.30;;;;;;;16.67;78.70;98490.17;88438;1276;99243;-70
2022/09/09 01:38:03;;;;;;;23.40;14.60;;;;;;;16.63;78.73;98489.52;88542;1273;24203;-73
2022/09/09 01:40:05;;;;;;;22.00;13.30;;;;;;;16.61;78.75;98487.76;88366;1274;25374;-72
2022/09/09 01:42:09;;;;;;;15.60;14.00;;;;;;;16.60;78.77;98494.45;88403;1274;23215;-73
2022/09/09 01:44:12;;;;;;;15.20;13.70;;;;;;;16.59;78.84;98495.42;88452;1275;22670;-73
2022/09/09 01:46:14;;;;;;;20.90;14.70;;;;;;;16.57;78.88;98498.91;88423;1273;99323;-71
2022/09/09 01:48:21;;;;;;;23.20;14.50;;;;;;;16.56;78.89;98499.35;88427;1277;23454;-73
2022/09/09 01:50:23;;;;;;;24.20;14.70;;;;;;;16.56;78.96;98501.71;88230;1276;23892;-71
2022/09/09 01:52:25;;;;;;;19.30;14.00;;;;;;;16.53;78.89;98499.58;88242;1274;98948;-72
2022/09/09 01:54:31;;;;;;;26.30;15.30;;;;;;;16.53;79.00;98500.48;88256;1277;25350;-73
2022/09/09 01:56:32;;;;;;;17.20;14.90;;;;;;;16.50;78.96;98505.65;88340;1278;22693;-73
2022/09/09 01:59:01;;;;;;;20.00;14.80;;;;;;;16.48;78.98;98506.15;88286;1273;99145;-72
2022/09/09 02:01:05;;;;;;;18.10;15.30;;;;;;;16.45;78.99;98508.20;88207;1276;24909;-73
2022/09/09 02:03:28;;;;;;;21.50;15.80;;;;;;;16.43;79.01;98511.02;88358;1275;22708;-73
2022/09/09 02:05:56;;;;;;;24.90;15.60;;;;;;;16.41;79.04;98510.11;88149;1278;99342;-71
2022/09/09 02:08:17;;;;;;;20.30;15.30;;;;;;;16.39;79.09;98511.50;88298;1274;23476;-72
2022/09/09 02:10:36;;;;;;;19.50;15.70;;;;;;;16.37;79.02;98512.23;88201;1274;99791;-73
2022/09/09 02:12:45;;;;;;;18.10;14.60;;;;;;;16.34;79.07;98517.60;88119;1279;22557;-73
2022/09/09 02:14:56;;;;;;;23.60;14.70;;;;;;;16.31;79.01;98521.56;87046;1277;1667492;-72
2022/09/09 02:17:08;;;;;;;;;;;;;;;16.28;79.10;98524.66;88137;1279;99521;-71
2022/09/09 02:19:25;;;;;;;17.00;14.30;;;;;;;16.25;79.17;98525.73;88226;1277;22611;-73
2022/09/09 02:21:30;;;;;;;26.20;14.30;;;;;;;16.23;79.27;98529.29;88183;1277;22715;-72
2022/09/09 02:23:35;;;;;;;16.10;14.50;;;;;;;16.20;79.18;98527.04;88487;1277;99304;-72
2022/09/09 02:25:40;;;;;;;18.00;14.60;;;;;;;16.17;79.21;98530.64;88518;1277;25532;-72
2022/09/09 02:27:45;;;;;;;16.20;14.40;;;;;;;16.15;79.18;98536.59;88246;1274;22566;-73
2022/09/09 02:29:51;;;;;;;18.90;15.10;;;;;;;16.14;79.19;98537.95;88803;1274;100152;-73
2022/09/09 02:31:55;;;;;;;16.90;14.10;;;;;;;16.12;79.14;98539.28;88254;1277;25114;-71
2022/09/09 02:34:01;;;;;;;19.40;14.00;;;;;;;16.11;79.21;98538.70;88160;1278;23182;-70
2022/09/09 02:36:06;;;;;;;19.60;14.00;;;;;;;16.07;79.30;98541.63;88142;1275;99442;-72
2022/09/09 02:38:12;;;;;;;19.80;14.40;;;;;;;16.06;79.17;98549.05;88217;1277;25388;-73
2022/09/09 02:40:15;;;;;;;24.60;14.80;;;;;;;16.04;79.28;98548.46;88304;1278;99488;-71
2022/09/09 02:42:17;;;;;;;24.00;15.50;;;;;;;16.02;79.29;98550.41;88264;1278;22840;-72
2022/09/09 02:44:19;;;;;;;20.30;15.50;;;;;;;15.99;79.25;98550.23;88264;1277;22845;-72
2022/09/09 02:46:51;;;;;;;20.60;15.40;;;;;;;15.99;79.32;98550.11;88178;1277;101176;-72
2022/09/09 02:49:11;;;;;;;20.20;14.50;;;;;;;15.96;79.39;98554.41;88251;1274;22674;-72
2022/09/09 02:51:40;;;;;;;20.30;15.10;;;;;;;15.94;79.44;98553.90;88763;1276;24075;-73
2022/09/09 02:53:48;;;;;;;17.40;15.40;;;;;;;15.92;79.50;98560.02;88207;1278;99723;-73
2022/09/09 02:55:59;;;;;;;18.10;16.30;;;;;;;15.89;79.44;98561.31;88236;1278;25403;-72
2022/09/09 02:58:05;;;;;;;25.00;16.60;;;;;;;15.87;79.51;98561.44;88472;1276;22581;-71
2022/09/09 03:00:08;;;;;;;20.70;16.30;;;;;;;15.86;79.56;98561.95;88573;1274;22673;-73
2022/09/09 03:02:11;;;;;;;23.70;18.00;;;;;;;15.83;79.52;98562.27;88584;1274;22585;-72
2022/09/09 03:04:13;;;;;;;20.40;17.70;;;;;;;15.81;79.62;98565.95;88199;1275;99695;-73
2022/09/09 03:06:16;;;;;;;22.60;18.80;;;;;;;15.79;79.58;98563.11;88581;1274;22759;-72
2022/09/09 03:08:18;;;;;;;35.40;19.20;;;;;;;15.78;79.71;98566.73;88462;1274;22628;-72
2022/09/09 03:10:20;;;;;;;22.80;19.40;;;;;;;15.76;79.67;98568.25;88417;1274;99894;-72
2022/09/09 03:12:22;;;;;;;40.10;19.60;;;;;;;15.75;79.70;98570.64;88292;1276;26015;-73
2022/09/09 03:14:27;;;;;;;26.00;20.00;;;;;;;15.74;79.63;98573.27;88458;1274;23666;-74
2022/09/09 03:16:29;;;;;;;22.50;20.10;;;;;;;15.73;79.81;98572.98;88286;1275;100911;-73
2022/09/09 03:18:32;;;;;;;32.00;20.80;;;;;;;15.72;79.61;98570.73;88335;1274;22653;-72
2022/09/09 03:20:34;;;;;;;27.40;21.10;;;;;;;15.71;79.76;98572.92;88355;1274;24387;-73
2022/09/09 03:22:36;;;;;;;24.80;20.70;;;;;;;15.70;79.77;98571.74;88431;1274;99301;-73
2022/09/09 03:24:37;;;;;;;24.00;20.20;;;;;;;15.70;79.76;98572.34;88304;1278;22563;-72
2022/09/09 03:26:40;;;;;;;31.90;21.20;;;;;;;15.68;79.71;98568.71;88488;1275;22625;-72
2022/09/09 03:28:44;;;;;;;21.80;19.50;;;;;;;15.67;79.85;98565.61;88429;1274;99632;-73
2022/09/09 03:30:46;;;;;;;23.70;19.20;;;;;;;15.66;79.74;98565.86;88427;1274;22560;-73
2022/09/09 03:32:48;;;;;;;25.20;19.10;;;;;;;15.64;79.80;98565.45;88286;1274;22752;-74
2022/09/09 03:34:49;;;;;;;30.40;19.40;;;;;;;15.63;79.70;98566.98;88210;1277;99546;-73
2022/09/09 03:36:51;;;;;;;27.90;19.30;;;;;;;15.61;79.78;98568.00;88351;1274;22866;-73
2022/09/09 03:38:54;;;;;;;24.90;19.40;;;;;;;15.61;79.71;98566.98;88339;1275;24224;-73
2022/09/09 03:41:00;;;;;;;26.30;19.20;;;;;;;15.60;79.79;98565.27;88320;1274;99878;-72
2022/09/09 03:43:01;;;;;;;21.50;19.20;;;;;;;15.59;79.78;98566.95;88380;1274;23422;-72
2022/09/09 03:45:05;;;;;;;23.60;18.80;;;;;;;15.57;79.79;98570.98;88444;1275;22586;-73
2022/09/09 03:47:06;;;;;;;21.70;18.40;;;;;;;15.53;79.61;98570.41;88378;1274;99913;-72
2022/09/09 03:49:10;;;;;;;21.80;18.70;;;;;;;15.49;79.68;98576.86;88519;1274;22710;-73
2022/09/09 03:51:12;;;;;;;23.40;18.30;;;;;;;15.46;79.64;98577.07;88361;1274;22641;-72
2022/09/09 03:53:15;;;;;;;23.70;18.90;;;;;;;15.44;79.68;98582.37;88279;1276;99498;-74
2022/09/09 03:55:17;;;;;;;28.40;19.20;;;;;;;15.44;79.89;98583.78;88636;1278;22996;-73
2022/09/09 03:57:20;;;;;;;26.00;19.80;;;;;;;15.43;79.81;98592.36;88561;1274;23517;-71
2022/09/09 03:59:22;;;;;;;37.60;19.80;;;;;;;15.41;79.92;98597.26;88256;1278;99663;-72
2022/09/09 04:01:24;;;;;;;23.20;19.20;;;;;;;15.41;80.01;98602.77;88339;1274;23345;-73
2022/09/09 04:03:26;;;;;;;26.70;18.70;;;;;;;15.41;80.07;98596.36;88497;1274;22687;-74
2022/09/09 04:05:28;;;;;;;23.60;19.00;;;;;;;15.41;80.08;98596.77;88467;1274;99288;-72
2022/09/09 04:07:30;;;;;;;28.40;19.90;;;;;;;15.40;80.06;98596.31;88398;1275;22570;-74
2022/09/09 04:09:31;;;;;;;30.40;20.50;;;;;;;15.41;80.11;98598.33;88310;1277;23602;-74
2022/09/09 04:11:33;;;;;;;23.50;21.00;;;;;;;15.42;80.15;98603.55;88386;1277;99310;-72
2022/09/09 04:13:40;;;;;;;24.60;20.00;;;;;;;15.44;80.27;98605.21;88293;1275;23339;-74
2022/09/09 04:15:42;;;;;;;31.60;20.40;;;;;;;15.43;80.08;98602.42;88487;1274;25374;-73
2022/09/09 04:17:46;;;;;;;23.00;19.60;;;;;;;15.44;80.28;98605.58;88396;1273;99376;-74
2022/09/09 04:19:48;;;;;;;22.20;20.00;;;;;;;15.44;80.19;98604.65;88500;1274;22580;-73
2022/09/09 04:21:51;;;;;;;30.80;20.00;;;;;;;15.45;80.20;98603.36;88214;1274;23456;-72
2022/09/09 04:23:53;;;;;;;29.30;20.70;;;;;;;15.47;80.12;98602.14;88419;1274;99512;-73
2022/09/09 04:25:56;;;;;;;23.90;20.10;;;;;;;15.50;80.29;98600.15;88346;1278;23879;-73
2022/09/09 04:27:58;;;;;;;27.90;21.00;;;;;;;15.53;80.40;98598.74;88316;1275;23977;-73
2022/09/09 04:29:59;;;;;;;27.20;19.30;;;;;;;15.54;80.40;98592.95;88259;1274;100698;-73
2022/09/09 04:32:01;;;;;;;26.70;20.20;;;;;;;15.56;80.34;98594.64;88442;1274;22830;-73
2022/09/09 04:34:05;;;;;;;27.10;18.90;;;;;;;15.57;80.40;98592.59;88386;1275;22558;-72
2022/09/09 04:36:07;;;;;;;23.80;20.10;;;;;;;15.59;80.36;98589.09;88253;1274;99377;-72
2022/09/09 04:38:09;;;;;;;21.90;19.70;;;;;;;15.60;80.55;98591.63;88292;1275;24847;-72
2022/09/09 04:40:12;;;;;;;23.60;20.70;;;;;;;15.63;80.53;98595.66;88245;1275;99509;-74
2022/09/09 04:42:14;;;;;;;25.70;19.70;;;;;;;15.65;80.58;98594.48;88303;1278;24298;-72
2022/09/09 04:44:16;;;;;;;24.50;20.20;;;;;;;15.67;80.53;98591.29;88383;1278;22607;-75
2022/09/09 04:46:17;;;;;;;30.20;21.50;;;;;;;15.71;80.66;98592.61;88219;1278;99938;-75
2022/09/09 04:48:22;;;;;;;22.70;20.00;;;;;;;15.74;80.66;98593.05;88298;1274;22670;-73
2022/09/09 04:50:25;;;;;;;30.10;20.50;;;;;;;15.77;80.68;98593.69;88487;1274;23465;-73
2022/09/09 04:52:27;;;;;;;23.50;20.00;;;;;;;15.81;80.75;98596.27;88255;1274;99587;-74
2022/09/09 04:54:29;;;;;;;25.20;20.00;;;;;;;15.84;80.78;98596.59;88329;1274;22743;-72
2022/09/09 04:56:31;;;;;;;24.40;20.40;;;;;;;15.87;80.74;98594.45;88284;1274;22672;-73
2022/09/09 04:58:33;;;;;;;22.30;19.60;;;;;;;15.90;80.81;98593.69;88243;1275;100586;-72
2022/09/09 05:00:35;;;;;;;20.30;18.20;;;;;;;15.93;80.75;98600.75;88273;1278;22625;-72
2022/09/09 05:02:40;;;;;;;30.10;20.30;;;;;;;15.95;80.80;98598.93;88267;1277;23089;-73
2022/09/09 05:04:42;;;;;;;24.90;19.80;;;;;;;15.99;80.90;98602.19;88205;1278;99694;-73
2022/09/09 05:06:44;;;;;;;37.50;21.20;;;;;;;16.02;80.82;98600.89;88347;1277;24593;-74
2022/09/09 05:08:45;;;;;;;23.60;20.10;;;;;;;16.05;80.91;98599.95;88314;1275;22755;-74
2022/09/09 05:10:48;;;;;;;28.90;20.00;;;;;;;16.10;80.94;98605.27;88205;1275;99444;-75
2022/09/09 05:12:54;;;;;;;25.50;19.20;;;;;;;16.13;80.96;98609.80;88337;1274;22685;-73
2022/09/09 05:14:55;;;;;;;32.30;20.60;;;;;;;16.16;80.89;98609.54;88308;1278;25701;-73
2022/09/09 05:16:57;;;;;;;21.90;19.20;;;;;;;16.20;80.89;98609.45;88258;1275;99324;-73
2022/09/09 05:18:59;;;;;;;21.10;18.90;;;;;;;16.24;81.01;98612.38;88373;1277;22788;-73
2022/09/09 05:21:02;;;;;;;28.40;20.50;;;;;;;16.27;80.99;98613.16;88300;1274;24222;-72
2022/09/09 05:23:04;;;;;;;22.40;19.30;;;;;;;16.29;81.05;98614.41;88290;1278;99817;-73
2022/09/09 05:25:06;;;;;;;23.90;19.60;;;;;;;16.32;80.98;98615.77;88496;1274;23017;-73
2022/09/09 05:27:10;;;;;;;26.00;18.80;;;;;;;16.34;80.97;98618.11;88412;1278;22820;-73
2022/09/09 05:29:19;;;;;;;23.60;19.30;;;;;;;16.37;80.96;98620.95;88460;1274;99355;-73
2022/09/09 05:31:21;;;;;;;22.70;20.00;;;;;;;16.37;80.84;98620.23;88752;1277;22719;-73
2022/09/09 05:33:25;;;;;;;23.70;19.70;;;;;;;16.37;80.88;98621.32;88534;1276;24206;-73
2022/09/09 05:35:27;;;;;;;23.60;20.30;;;;;;;16.35;80.78;98618.77;88916;1276;99370;-73
2022/09/09 05:37:30;;;;;;;22.60;19.40;;;;;;;16.33;80.82;98623.52;88466;1275;22639;-73
2022/09/09 05:39:32;;;;;;;28.70;19.70;;;;;;;16.30;80.70;98625.32;88384;1277;22627;-74
2022/09/09 05:41:35;;;;;;;27.60;19.30;;;;;;;16.28;80.68;98626.41;88243;1278;100079;-74
2022/09/09 05:43:38;;;;;;;26.60;18.80;;;;;;;16.26;80.67;98632.91;88366;1277;24221;-73
2022/09/09 05:46:09;;;;;;;26.50;18.90;;;;;;;16.25;80.68;98631.98;88512;1275;22561;-74
2022/09/09 05:48:12;;;;;;;22.50;20.00;;;;;;;16.23;80.71;98628.41;88679;1277;22607;-73
2022/09/09 05:50:14;;;;;;;25.70;21.50;;;;;;;16.22;80.81;98624.41;88389;1278;22655;-74
2022/09/09 05:52:17;;;;;;;26.80;19.70;;;;;;;16.22;80.78;98623.85;88439;1274;98371;-73
2022/09/09 05:54:18;;;;;;;29.60;22.20;;;;;;;16.21;80.81;98625.18;88484;1276;23413;-75
2022/09/09 05:56:24;;;;;;;30.90;23.80;;;;;;;16.22;80.85;98625.30;88351;1277;22566;-73
2022/09/09 05:58:26;;;;;;;25.70;22.00;;;;;;;16.23;80.83;98628.90;88413;1275;99938;-74
2022/09/09 06:00:29;;;;;;;40.30;22.50;;;;;;;16.25;80.88;98632.80;88562;1274;25460;-73
2022/09/09 06:02:32;;;;;;;33.20;22.20;;;;;;;16.26;80.87;98634.67;88351;1274;22853;-75
2022/09/09 06:04:33;;;;;;;28.20;23.50;;;;;;;16.27;80.81;98635.83;88411;1275;99502;-73
2022/09/09 06:06:39;;;;;;;30.40;22.70;;;;;;;16.29;80.83;98635.50;88501;1274;24354;-74
2022/09/09 06:08:44;;;;;;;33.10;22.70;;;;;;;16.33;80.89;98641.45;88501;1274;22854;-74
2022/09/09 06:10:46;;;;;;;27.50;23.30;;;;;;;16.35;80.92;98638.77;88185;1277;98665;-74
2022/09/09 06:12:48;;;;;;;26.90;22.20;;;;;;;16.38;80.87;98638.74;88517;1278;22903;-74
2022/09/09 06:14:51;;;;;;;34.60;24.50;;;;;;;16.39;80.76;98644.52;88516;1274;23317;-73
2022/09/09 06:16:54;;;;;;;37.10;24.70;;;;;;;16.41;80.87;98647.17;88222;1277;99919;-74
2022/09/09 06:18:57;;;;;;;33.60;26.10;;;;;;;16.45;80.91;98651.53;88402;1274;23200;-74
2022/09/09 06:21:04;;;;;;;33.50;25.70;;;;;;;16.49;80.91;98654.90;88706;1277;22775;-74
2022/09/09 06:23:05;;;;;;;33.20;25.80;;;;;;;16.51;80.73;98653.01;88214;1276;99837;-74
2022/09/09 06:25:09;;;;;;;32.80;23.30;;;;;;;16.53;80.79;98651.75;88379;1274;23947;-74
2022/09/09 06:27:13;;;;;;;36.60;25.60;;;;;;;16.57;80.78;98653.62;88703;1277;23156;-75
2022/09/09 06:29:17;;;;;;;32.80;26.00;;;;;;;16.61;80.76;98658.58;88382;1274;99644;-73
2022/09/09 06:31:22;;;;;;;35.90;25.80;;;;;;;16.64;80.71;98659.77;88540;1274;23490;-74
2022/09/09 06:33:23;;;;;;;41.60;26.00;;;;;;;16.67;80.64;98661.31;88455;1276;22573;-74
2022/09/09 06:35:26;;;;;;;31.50;23.30;;;;;;;16.71;80.69;98661.04;88743;1274;100368;-74
2022/09/09 06:37:29;;;;;;;30.80;25.10;;;;;;;16.76;80.69;98656.55;88392;1273;23352;-74
2022/09/09 06:39:30;;;;;;;31.00;23.60;;;;;;;16.80;80.70;98659.59;88389;1277;22729;-74
2022/09/09 06:41:33;;;;;;;28.80;21.50;;;;;;;16.83;80.62;98662.48;88342;1274;99498;-73
2022/09/09 06:43:35;;;;;;;26.60;22.40;;;;;;;16.89;80.51;98660.87;88343;1277;22568;-73
2022/09/09 06:45:36;;;;;;;32.40;22.50;;;;;;;16.93;80.44;98663.01;88369;1274;22564;-73
2022/09/09 06:47:38;;;;;;;32.40;21.90;;;;;;;16.98;80.47;98662.50;88272;1276;99778;-74
2022/09/09 06:49:40;;;;;;;33.20;22.60;;;;;;;17.01;80.41;98663.31;88594;1274;22656;-74
2022/09/09 06:51:44;;;;;;;32.30;22.40;;;;;;;17.04;80.27;98661.42;88574;1274;25363;-75
2022/09/09 06:53:46;;;;;;;30.00;21.70;;;;;;;17.08;80.27;98661.46;88865;1273;99678;-73
2022/09/09 06:55:48;;;;;;;23.90;20.90;;;;;;;17.11;80.31;98661.05;88666;1275;22562;-75
2022/09/09 06:57:51;;;;;;;30.60;20.50;;;;;;;17.14;80.27;98658.73;88797;1274;22587;-75
2022/09/09 06:59:59;;;;;;;20.50;18.40;;;;;;;17.18;80.38;98657.12;88835;1273;98226;-74
2022/09/09 07:02:01;;;;;;;23.40;18.20;;;;;;;17.26;80.53;98659.17;88534;1276;22623;-75
2022/09/09 07:04:07;;;;;;;27.90;19.30;;;;;;;17.32;80.36;98659.90;88780;1277;22596;-74
2022/09/09 07:06:17;;;;;;;26.90;17.30;;;;;;;17.37;80.23;98657.41;88674;1277;99353;-76
2022/09/09 07:08:20;;;;;;;18.00;16.20;;;;;;;17.39;80.22;98653.69;88612;1277;22623;-75
2022/09/09 07:10:22;;;;;;;19.00;16.00;;;;;;;17.41;80.07;98656.49;88619;1274;101828;-75
2022/09/09 07:12:25;;;;;;;21.60;17.70;;;;;;;17.45;80.13;98655.31;88410;1275;22738;-74
2022/09/09 07:14:27;;;;;;;26.30;19.50;;;;;;;17.49;79.98;98653.38;88630;1273;25096;-74
2022/09/09 07:16:33;;;;;;;24.30;18.10;;;;;;;17.51;79.97;98657.45;88490;1275;98356;-75
2022/09/09 07:18:35;;;;;;;25.40;18.10;;;;;;;17.55;79.91;98652.43;88402;1277;22637;-75
2022/09/09 07:20:39;;;;;;;22.30;18.20;;;;;;;17.58;80.03;98655.37;88772;1273;22938;-74
2022/09/09 07:22:46;;;;;;;28.40;18.30;;;;;;;17.60;79.85;98655.04;88364;1274;100289;-75
2022/09/09 07:24:49;;;;;;;28.20;18.80;;;;;;;17.61;79.83;98656.52;88655;1273;22672;-74
2022/09/09 07:26:52;;;;;;;27.30;18.80;;;;;;;17.61;79.59;98652.59;88742;1273;22574;-74
2022/09/09 07:28:58;;;;;;;19.30;17.20;;;;;;;17.58;79.51;98652.67;88512;1274;99427;-72
2022/09/09 07:31:04;;;;;;;18.90;16.70;;;;;;;17.57;79.62;98650.45;88841;1273;22608;-74
2022/09/09 07:33:07;;;;;;;22.70;16.60;;;;;;;17.55;79.64;98646.39;88611;1273;24049;-74
2022/09/09 07:35:08;;;;;;;22.20;16.20;;;;;;;17.53;79.49;98639.08;88494;1274;101334;-76
2022/09/09 07:37:11;;;;;;;21.30;15.60;;;;;;;17.57;79.67;98645.13;88637;1274;25286;-75
2022/09/09 07:39:14;;;;;;;21.70;14.70;;;;;;;17.61;79.60;98644.06;88504;1276;22728;-75
2022/09/09 07:41:31;;;;;;;21.10;15.60;;;;;;;17.68;79.67;98643.48;88480;1277;99867;-76
2022/09/09 07:43:34;;;;;;;14.90;13.50;;;;;;;17.75;79.53;98640.81;88757;1274;22679;-75
2022/09/09 07:45:36;;;;;;;22.50;15.10;;;;;;;17.80;79.49;98640.54;88366;1277;22606;-75
2022/09/09 07:47:39;;;;;;;16.60;14.80;;;;;;;17.86;79.45;98637.71;88557;1275;99735;-75
2022/09/09 07:49:40;;;;;;;17.60;15.80;;;;;;;17.90;79.25;98647.71;88595;1276;22635;-75
2022/09/09 07:51:45;;;;;;;22.30;14.00;;;;;;;17.94;79.38;98646.02;88513;1274;22702;-76
2022/09/09 07:53:48;;;;;;;20.70;14.30;;;;;;;17.99;79.26;98644.65;88460;1274;99940;-76
2022/09/09 07:55:51;;;;;;;20.30;15.70;;;;;;;18.05;79.19;98648.39;88472;1274;22730;-77
2022/09/09 07:57:53;;;;;;;15.10;13.60;;;;;;;18.11;79.11;98645.29;88639;1273;25546;-78
2022/09/09 07:59:58;;;;;;;18.60;13.30;;;;;;;18.16;79.13;98645.73;88442;1276;103388;-74
2022/09/09 08:02:00;;;;;;;16.70;11.80;;;;;;;18.21;79.14;98644.73;88548;1276;25963;-76
2022/09/09 08:04:07;;;;;;;11.60;10.30;;;;;;;18.26;79.08;98642.24;88496;1274;22573;-74
2022/09/09 08:06:08;;;;;;;17.60;10.70;;;;;;;18.31;79.07;98651.73;88724;1274;99071;-76
2022/09/09 08:08:11;;;;;;;11.20;8.80;;;;;;;18.36;78.95;98652.95;88538;1274;24265;-76
2022/09/09 08:10:14;;;;;;;15.90;10.00;;;;;;;18.37;78.83;98650.52;88650;1274;22703;-75
2022/09/09 08:12:16;;;;;;;12.00;10.00;;;;;;;18.43;78.77;98651.97;88345;1276;22582;-76
2022/09/09 08:14:17;;;;;;;11.00;9.20;;;;;;;18.48;78.73;98655.09;88392;1274;23891;-73
2022/09/09 08:16:22;;;;;;;9.00;7.70;;;;;;;18.54;78.69;98656.55;88217;1278;102034;-75
2022/09/09 08:18:24;;;;;;;10.40;8.10;;;;;;;18.60;78.60;98652.68;88468;1276;23782;-75
2022/09/09 08:20:35;;;;;;;9.10;8.30;;;;;;;18.67;78.59;98654.50;88488;1277;25279;-75
2022/09/09 08:22:37;;;;;;;11.60;7.00;;;;;;;18.77;78.56;98657.92;88524;1277;98216;-76
2022/09/09 08:24:39;;;;;;;8.20;7.40;;;;;;;18.89;78.43;98661.71;88431;1281;24322;-77
2022/09/09 08:26:44;;;;;;;16.60;8.40;;;;;;;18.97;78.24;98665.50;88340;1276;22635;-76
2022/09/09 08:28:46;;;;;;;13.80;7.20;;;;;;;19.06;78.22;98666.33;88447;1277;101099;-75
2022/09/09 08:30:47;;;;;;;11.00;7.40;;;;;;;19.14;78.10;98668.80;88576;1276;22598;-76
2022/09/09 08:32:50;;;;;;;7.10;6.10;;;;;;;19.24;78.06;98668.48;88377;1276;22569;-76
2022/09/09 08:34:52;;;;;;;7.00;4.90;;;;;;;19.37;78.05;98668.59;88281;1274;100025;-77
2022/09/09 08:36:57;;;;;;;6.10;5.30;;;;;;;19.54;77.76;98662.17;88534;1276;22606;-76
2022/09/09 08:39:01;;;;;;;14.80;4.60;;;;;;;19.68;77.60;98661.48;88529;1274;22685;-76
2022/09/09 08:41:31;;;;;;;8.60;4.40;;;;;;;19.82;77.26;98659.75;88406;1278;99671;-76
2022/09/09 08:43:33;;;;;;;7.00;5.00;;;;;;;19.92;77.02;98660.41;88550;1274;23391;-75
2022/09/09 08:45:50;;;;;;;18.20;4.30;;;;;;;20.01;76.86;98660.98;88318;1279;22726;-75
2022/09/09 08:48:14;;;;;;;10.70;4.70;;;;;;;20.18;77.02;98664.23;88346;1276;99376;-76
2022/09/09 08:50:25;;;;;;;5.20;4.70;;;;;;;20.37;76.90;98666.05;88390;1276;25351;-76
2022/09/09 08:52:50;;;;;;;9.10;4.10;;;;;;;20.51;76.58;98669.60;88491;1276;99694;-77
2022/09/09 08:55:14;;;;;;;5.80;3.30;;;;;;;20.63;76.39;98668.83;88609;1275;22589;-75
2022/09/09 08:57:24;;;;;;;6.70;3.50;;;;;;;20.74;76.08;98666.73;88669;1274;24225;-77
2022/09/09 08:59:26;;;;;;;5.30;3.30;;;;;;;20.83;75.84;98665.89;88516;1276;99414;-78
2022/09/09 09:01:36;;;;;;;5.20;3.20;;;;;;;20.90;75.77;98666.02;88628;1276;22632;-77
2022/09/09 09:04:09;;;;;;;5.90;3.50;;;;;;;20.98;75.58;98668.76;88653;1274;22540;-76
2022/09/09 09:06:49;;;;;;;9.70;3.30;;;;;;;20.96;75.29;98674.15;88468;1274;99865;-76
2022/09/09 09:09:00;;;;;;;10.60;3.50;;;;;;;20.81;75.06;98675.86;88538;1274;22648;-76
2022/09/09 09:11:03;;;;;;;6.70;3.10;;;;;;;20.78;75.30;98673.65;88320;1276;99800;-76
2022/09/09 09:13:40;;;;;;;3.40;3.10;;;;;;;20.82;75.24;98674.68;88388;1276;26681;-76
2022/09/09 09:15:50;;;;;;;3.30;2.70;;;;;;;20.77;75.00;98670.86;88213;1282;22633;-73
2022/09/09 09:17:52;;;;;;;5.00;3.10;;;;;;;20.88;75.07;98674.83;88251;1282;99197;-75
2022/09/09 09:19:54;;;;;;;6.00;2.60;;;;;;;20.97;75.04;98671.77;88193;1282;23200;-75
2022/09/09 09:22:29;;;;;;;4.50;2.70;;;;;;;21.02;74.91;98671.02;87970;1283;24229;-75
2022/09/09 09:24:59;;;;;;;6.90;2.80;;;;;;;21.08;74.53;98666.45;88095;1282;22658;-76
2022/09/09 09:27:15;;;;;;;7.90;2.70;;;;;;;21.08;74.44;98670.45;87979;1284;22579;-74
2022/09/09 09:29:19;;;;;;;6.80;2.90;;;;;;;21.10;74.27;98673.43;87856;1282;99920;-76
2022/09/09 09:31:21;;;;;;;4.80;2.60;;;;;;;21.12;74.13;98673.48;88013;1284;22601;-76
2022/09/09 09:33:52;;;;;;;8.70;2.70;;;;;;;21.13;73.93;98674.47;87838;1285;24350;-76
2022/09/09 09:35:55;;;;;;;3.40;2.40;;;;;;;21.18;73.69;98675.16;88184;1281;100744;-76
2022/09/09 09:37:57;;;;;;;5.30;2.70;;;;;;;21.22;73.88;98674.75;87755;1286;22566;-75
2022/09/09 09:40:14;;;;;;;6.30;2.80;;;;;;;21.34;73.92;98670.11;87993;1284;25904;-76
2022/09/09 09:42:17;;;;;;;6.10;2.20;;;;;;;21.47;73.58;98668.25;87842;1285;24232;-76
2022/09/09 09:44:30;;;;;;;6.00;2.10;;;;;;;21.50;73.24;98671.41;87787;1285;24344;-75
2022/09/09 09:46:32;;;;;;;5.00;2.30;;;;;;;21.54;73.27;98665.61;87976;1281;99610;-76